Elblag, Poland
Current Conditions -  °F | °C
As of 12:30 AM on Tuesday 25 Nov 2014 (Local Time) from EPGD Reporting Station
Haze Haze  
Wind Chill: 36°   Ceiling: 300
Heat Index: 39°   Visibility: 1.8mi
Dew Point: 39°   Wind: 5mph
Humidity: 100%   Direction: 240°WSW
Pressure: 30.18"   Gusts: NA
Location:  54.18°N, 19.4°E
Report Text: EPGD 242230Z 24004KT 210V280 3000 BR BKN003 04/04 Q1022
Loading
Personal Weather Stations






























Interactive Weather Map New forecast layout! Learn more

10-Day Weather Forecast

Advertisements
Track Severe Weather on mobile